Terminal Aerodrome Forecast
Issued by NWS

Home | Current Version | Previous Version | Text Only | Print | Product List | Glossary On
Versions: 1 2 3 4 5 6 7 8 9 10 11 12 13 14 15 16 17 18 19 20 21 22
000
FTUS43 KEAX 031900 AAB
TAFSTJ
TAF AMD
KSTJ 031903Z 0319/0418 18015G25KT P6SM SCT012 BKN100
      TEMPO 0319/0322 BKN012
     FM040200 16009KT P6SM VCTS BKN040CB
     FM040600 16005KT P6SM SCT040 SCT100=

USA.gov is the U.S. government's official web portal to all federal, state and local government web resources and services.